Time;durP1;ratioP1;P1;durP2;ratioP2;P2;SDS_P1;SDS_P2;PMS_P1;PMS_P2;Temp;Humidity;BMP_temperature;BMP_pressure;BME280_temperature;BME280_humidity;BME280_pressure;Samples;Min_cycle;Max_cycle;Signal;HPM_P1;HPM_P2
2022/05/12 04:32:41;;;;;;;;;3.00;1.50;;;;;16.20;57.98;101537.06;5042851;27;46107;-74
2022/05/12 04:35:14;;;;;;;;;3.00;1.50;;;;;16.26;57.63;101536.72;5055653;28;45954;-73
2022/05/12 04:37:46;;;;;;;;;2.75;1.00;;;;;16.07;57.48;101496.31;5055537;28;45294;-74
2022/05/12 04:40:16;;;;;;;;;2.50;2.50;;;;;16.34;57.41;101538.97;5055570;28;45331;-73
2022/05/12 04:42:42;;;;;;;;;3.25;1.75;;;;;16.40;57.29;101546.75;5055441;28;45253;-73
2022/05/12 04:45:09;;;;;;;;;5.00;2.00;;;;;16.43;57.23;101549.28;5054822;28;45918;-73
2022/05/12 04:47:36;;;;;;;;;3.25;2.50;;;;;16.35;57.50;101547.00;5055165;28;45338;-74
2022/05/12 04:50:04;;;;;;;;;4.00;4.00;;;;;16.30;57.81;101529.31;5055110;28;45420;-73
2022/05/12 04:52:29;;;;;;;;;4.00;3.00;;;;;16.33;57.56;101539.97;5054924;28;45479;-71
2022/05/12 04:54:55;;;;;;;;;2.00;2.00;;;;;16.43;57.24;101560.97;5055432;28;46286;-74
2022/05/12 04:57:22;;;;;;;;;1.25;1.00;;;;;16.44;57.21;101557.31;5055010;28;45274;-73
2022/05/12 04:59:49;;;;;;;;;4.00;2.50;;;;;16.43;57.28;101551.97;5055125;28;45534;-73
2022/05/12 05:02:15;;;;;;;;;1.75;1.75;;;;;16.33;57.68;101564.31;5054705;28;45498;-73
2022/05/12 05:04:40;;;;;;;;;2.00;2.00;;;;;16.20;57.57;101565.00;5056248;28;45315;-72
2022/05/12 05:07:06;;;;;;;;;4.25;3.00;;;;;15.99;58.49;101559.91;5057976;28;45315;-73
2022/05/12 05:09:32;;;;;;;;;2.00;2.00;;;;;15.88;58.69;101564.09;5055012;28;45409;-72
2022/05/12 05:11:57;;;;;;;;;3.00;3.00;;;;;15.87;59.15;101551.50;5055142;28;45527;-73
2022/05/12 05:14:24;;;;;;;;;4.50;1.75;;;;;15.78;59.34;101564.66;5056525;28;45288;-75
2022/05/12 05:16:49;;;;;;;;;3.25;2.00;;;;;15.66;59.18;101540.97;5055039;28;45178;-71
2022/05/12 05:19:16;;;;;;;;;3.75;2.00;;;;;15.76;59.52;101571.97;5054656;28;45369;-75
2022/05/12 05:21:41;;;;;;;;;3.25;1.00;;;;;15.64;59.64;101567.25;5055048;28;45223;-73
2022/05/12 05:24:08;;;;;;;;;4.00;3.00;;;;;15.52;59.66;101561.50;5054544;28;46551;-74
2022/05/12 05:26:34;;;;;;;;;2.00;2.00;;;;;15.54;60.16;101564.16;5047903;28;45407;-76
2022/05/12 05:29:01;;;;;;;;;2.75;1.50;;;;;15.34;60.38;101554.38;5052191;28;45403;-76
2022/05/12 05:31:26;;;;;;;;;2.50;2.50;;;;;15.35;60.66;101572.34;5055077;28;45622;-75
2022/05/12 05:33:51;;;;;;;;;2.00;2.00;;;;;15.45;60.16;101584.41;5054960;28;46090;-78
2022/05/12 05:36:17;;;;;;;;;6.00;2.50;;;;;15.55;60.06;101598.34;5054557;28;45344;-76
2022/05/12 05:38:42;;;;;;;;;2.50;2.50;;;;;15.50;60.15;101603.06;5054462;28;45333;-76
2022/05/12 05:41:09;;;;;;;;;2.00;2.00;;;;;15.51;60.00;101589.47;5032916;28;45486;-75
2022/05/12 05:43:35;;;;;;;;;2.00;2.00;;;;;15.58;59.85;101581.06;5049410;28;45996;-74
2022/05/12 05:46:01;;;;;;;;;1.00;1.00;;;;;15.66;59.25;101584.25;5054319;28;45209;-74
2022/05/12 05:48:26;;;;;;;;;2.50;2.50;;;;;15.89;59.53;101611.81;5054131;28;45248;-75
2022/05/12 05:53:38;;;;;;;;;2.00;2.00;;;;;15.97;59.14;101614.09;5053792;28;45860;-73
2022/05/12 05:56:06;;;;;;;;;4.50;3.00;;;;;16.08;58.71;101618.88;5057200;28;45423;-74
2022/05/12 05:58:33;;;;;;;;;3.75;2.00;;;;;16.01;58.63;101612.06;5057693;28;45438;-74
2022/05/12 06:00:58;;;;;;;;;3.75;3.00;;;;;16.07;58.10;101641.50;5057742;28;45261;-73
2022/05/12 06:03:25;;;;;;;;;2.50;1.75;;;;;16.05;58.53;101630.78;5057386;28;45375;-73
2022/05/12 06:05:50;;;;;;;;;2.00;2.00;;;;;16.09;58.64;101628.75;5036262;28;45352;-71
2022/05/12 06:08:18;;;;;;;;;7.25;3.75;;;;;16.25;57.70;101640.47;5055525;28;45370;-72
2022/05/12 06:10:44;;;;;;;;;2.00;2.00;;;;;16.40;57.60;101655.03;5057426;28;45618;-70
2022/05/12 06:13:13;;;;;;;;;2.00;2.00;;;;;16.42;57.18;101653.94;5052698;28;46518;-73
2022/05/12 06:15:39;;;;;;;;;2.00;2.00;;;;;16.48;56.83;101645.50;5037450;28;45260;-72
2022/05/12 06:18:09;;;;;;;;;5.00;2.00;;;;;16.60;56.57;101662.88;5037294;28;45260;-73
2022/05/12 06:20:34;;;;;;;;;6.25;3.75;;;;;16.67;56.72;101661.63;5037630;28;45512;-77
2022/05/12 06:23:00;;;;;;;;;3.75;3.00;;;;;16.69;55.94;101661.50;5035595;28;45463;-79
2022/05/12 06:25:25;;;;;;;;;5.50;4.50;;;;;16.72;55.68;101666.78;5036615;28;45402;-78
2022/05/12 06:27:51;;;;;;;;;6.25;3.75;;;;;16.58;55.51;101657.56;5037195;28;45510;-77
2022/05/12 06:30:18;;;;;;;;;3.00;3.00;;;;;16.56;55.46;101667.59;5048625;28;45370;-76
2022/05/12 06:32:44;;;;;;;;;4.00;2.00;;;;;16.54;55.40;101657.81;5052843;28;46213;-77
2022/05/12 06:35:13;;;;;;;;;3.00;3.00;;;;;16.71;55.67;101667.72;5035860;28;46325;-75
2022/05/12 06:37:39;;;;;;;;;6.50;3.25;;;;;16.81;56.00;101661.72;5056457;28;45401;-76
2022/05/12 06:40:05;;;;;;;;;4.00;3.00;;;;;16.78;55.16;101650.16;5057292;28;45378;-76
2022/05/12 06:42:31;;;;;;;;;3.00;1.50;;;;;16.81;54.05;101652.72;5048653;28;46644;-76
2022/05/12 06:44:56;;;;;;;;;2.75;2.75;;;;;17.06;53.62;101681.97;5056131;28;45390;-77
2022/05/12 06:47:22;;;;;;;;;4.75;3.00;;;;;17.03;53.23;101670.31;5043402;28;45462;-75
2022/05/12 06:49:51;;;;;;;;;2.25;2.00;;;;;17.12;53.88;101678.88;5036673;28;45470;-76
2022/05/12 06:52:17;;;;;;;;;4.50;3.00;;;;;17.13;52.99;101686.06;5039936;28;45284;-76
2022/05/12 06:54:44;;;;;;;;;3.00;3.00;;;;;17.06;53.71;101681.97;5036776;28;45748;-76
2022/05/12 06:57:11;;;;;;;;;4.00;2.00;;;;;17.01;53.19;101674.13;5045314;28;45324;-76
2022/05/12 06:59:39;;;;;;;;;2.25;2.25;;;;;17.05;52.89;101672.09;5056710;28;45637;-77
2022/05/12 07:02:05;;;;;;;;;2.50;2.50;;;;;17.16;53.48;101686.75;5055921;28;45512;-76
2022/05/12 07:04:31;;;;;;;;;3.00;3.00;;;;;17.23;53.53;101685.44;5056447;28;45222;-76
2022/05/12 07:06:57;;;;;;;;;5.75;4.75;;;;;17.25;52.59;101680.81;5054774;28;45558;-75
2022/05/12 07:09:22;;;;;;;;;3.00;3.00;;;;;17.31;52.70;101675.00;5056589;28;45474;-75
2022/05/12 07:11:48;;;;;;;;;4.25;2.50;;;;;17.39;52.56;101674.56;5056072;28;45278;-76
2022/05/12 07:14:14;;;;;;;;;2.00;2.00;;;;;17.51;51.55;101681.09;5042074;28;45374;-75
2022/05/12 07:16:42;;;;;;;;;2.25;2.25;;;;;17.55;52.00;101678.09;5040103;28;45322;-77
2022/05/12 07:19:07;;;;;;;;;1.25;1.25;;;;;17.60;51.23;101670.56;5041950;28;45508;-78
2022/05/12 07:27:00;;;;;;;;;3.25;2.00;;;;;17.74;50.59;101648.06;5041755;28;45343;-76
2022/05/12 07:29:27;;;;;;;;;3.25;1.75;;;;;17.75;50.59;101636.25;5036872;28;45465;-75
2022/05/12 07:31:53;;;;;;;;;3.75;2.00;;;;;17.92;51.05;101668.63;5039976;28;45358;-76
2022/05/12 07:34:20;;;;;;;;;1.00;1.00;;;;;17.83;49.36;101657.47;5047526;28;45355;-75
2022/05/12 07:36:51;;;;;;;;;4.50;3.00;;;;;17.80;49.74;101665.78;5054141;28;45352;-78
2022/05/12 07:39:18;;;;;;;;;3.50;2.00;;;;;17.67;49.31;101663.84;5054459;28;45648;-77
2022/05/12 07:41:44;;;;;;;;;2.00;2.00;;;;;17.75;49.75;101669.66;5053903;28;46110;-77
2022/05/12 07:44:18;;;;;;;;;6.00;3.00;;;;;17.83;49.30;101669.19;5054219;28;45662;-77
2022/05/12 07:46:45;;;;;;;;;2.25;2.25;;;;;17.81;49.07;101649.41;5053730;28;45355;-77
2022/05/12 07:49:11;;;;;;;;;1.00;1.00;;;;;17.89;49.31;101655.25;5034227;28;45443;-77
2022/05/12 07:51:36;;;;;;;;;3.25;2.00;;;;;17.91;48.19;101658.75;5034465;28;46130;-75
2022/05/12 07:54:02;;;;;;;;;1.50;1.50;;;;;17.95;48.69;101665.72;5034098;28;45421;-76
2022/05/12 07:56:28;;;;;;;;;2.25;2.25;;;;;18.07;48.17;101670.38;5034186;28;45430;-77
2022/05/12 07:58:55;;;;;;;;;5.50;2.75;;;;;18.06;47.68;101670.47;5046262;28;45608;-76
2022/05/12 08:01:21;;;;;;;;;2.00;1.50;;;;;17.98;48.17;101661.94;5034155;28;46474;-76
2022/05/12 08:03:47;;;;;;;;;4.00;2.75;;;;;18.09;48.34;101673.88;5026288;28;45661;-76
2022/05/12 08:06:15;;;;;;;;;2.75;2.50;;;;;18.16;48.31;101679.78;5034483;28;45321;-76
2022/05/12 08:08:42;;;;;;;;;0.00;0.00;;;;;18.21;48.58;101665.91;5051020;28;45356;-76
2022/05/12 08:11:07;;;;;;;;;4.25;3.00;;;;;18.16;47.93;101652.66;5033891;28;46251;-75
2022/05/12 08:13:33;;;;;;;;;4.75;3.00;;;;;18.25;48.01;101681.06;5053725;28;45347;-76
2022/05/12 08:15:59;;;;;;;;;3.00;3.00;;;;;18.25;47.38;101690.06;5054350;28;45440;-76
2022/05/12 08:18:26;;;;;;;;;4.00;4.00;;;;;18.17;47.63;101673.41;5051990;28;46021;-78
2022/05/12 08:20:52;;;;;;;;;3.00;3.00;;;;;18.27;47.99;101680.00;5053287;28;45402;-76
2022/05/12 08:23:18;;;;;;;;;2.25;2.25;;;;;18.29;46.83;101688.91;5044602;28;45704;-76
2022/05/12 08:25:45;;;;;;;;;2.00;1.50;;;;;18.17;46.51;101691.53;5043818;28;45379;-76
2022/05/12 08:28:15;;;;;;;;;4.50;2.50;;;;;18.08;47.65;101683.00;5053429;28;45229;-77
2022/05/12 08:30:43;;;;;;;;;3.50;1.25;;;;;17.70;47.41;101611.22;5053365;28;46135;-77
2022/05/12 08:33:08;;;;;;;;;1.50;1.50;;;;;18.19;48.22;101690.47;5053120;28;45357;-76
2022/05/12 08:35:33;;;;;;;;;2.25;2.00;;;;;18.15;47.15;101667.19;5053650;28;45280;-78
2022/05/12 08:37:59;;;;;;;;;1.25;1.25;;;;;18.35;47.13;101688.53;5052504;28;45386;-78
2022/05/12 08:40:30;;;;;;;;;6.50;2.00;;;;;18.44;47.26;101689.78;5053693;28;45417;-76
2022/05/12 08:43:01;;;;;;;;;4.50;2.75;;;;;18.48;46.52;101688.59;5053209;28;45378;-79
2022/05/12 08:45:27;;;;;;;;;1.00;1.00;;;;;18.53;47.39;101692.78;5053961;28;45327;-77
2022/05/12 08:47:56;;;;;;;;;2.25;2.00;;;;;18.59;46.77;101683.41;5031240;28;46237;-77
2022/05/12 08:50:28;;;;;;;;;2.00;2.00;;;;;18.61;45.74;101688.75;5048044;28;45781;-78
2022/05/12 08:53:01;;;;;;;;;1.50;1.50;;;;;18.57;45.74;101688.06;5052884;28;45433;-76
2022/05/12 08:55:39;;;;;;;;;1.50;1.50;;;;;18.48;45.75;101689.47;5048002;28;45596;-76
2022/05/12 08:58:21;;;;;;;;;1.25;1.25;;;;;18.43;46.08;101679.91;5041287;28;45364;-77
2022/05/12 09:00:51;;;;;;;;;3.50;1.75;;;;;18.47;46.08;101676.00;5053017;28;47227;-77
2022/05/12 09:03:30;;;;;;;;;1.00;1.00;;;;;18.64;46.13;101673.09;5030790;28;45930;-77
2022/05/12 09:06:03;;;;;;;;;2.00;2.00;;;;;18.70;44.74;101675.44;5033790;28;45635;-77
2022/05/12 09:08:57;;;;;;;;;2.75;1.75;;;;;18.77;45.14;101678.63;5037166;28;45292;-76
2022/05/12 09:11:50;;;;;;;;;2.25;0.50;;;;;18.92;44.04;101668.59;5032754;28;46289;-76
2022/05/12 09:14:27;;;;;;;;;2.25;1.00;;;;;18.99;43.88;101673.50;5049964;28;45308;-78
2022/05/12 09:16:53;;;;;;;;;4.00;2.00;;;;;18.87;43.81;101661.63;5053498;28;45454;-74
2022/05/12 09:19:19;;;;;;;;;3.25;0.50;;;;;18.98;43.76;101669.03;5052558;28;45768;-77
2022/05/12 09:21:45;;;;;;;;;2.25;0.75;;;;;18.93;43.72;101682.09;5052545;28;46007;-76
2022/05/12 09:24:11;;;;;;;;;2.00;2.00;;;;;18.94;44.60;101677.53;5052644;28;45633;-79
2022/05/12 09:26:38;;;;;;;;;2.00;2.00;;;;;19.01;43.96;101689.72;5052687;28;45303;-76
2022/05/12 09:29:23;;;;;;;;;2.00;1.00;;;;;19.00;44.08;101663.50;5052019;28;45454;-77
2022/05/12 09:31:51;;;;;;;;;2.50;1.75;;;;;19.23;44.36;101682.75;5052699;28;46113;-76
2022/05/12 09:34:37;;;;;;;;;2.00;2.00;;;;;19.22;43.44;101672.84;5052285;28;45391;-78
2022/05/12 09:37:26;;;;;;;;;0.00;0.00;;;;;19.16;43.50;101656.94;5052790;28;45390;-79
2022/05/12 09:39:54;;;;;;;;;3.00;1.00;;;;;19.36;43.84;101674.66;5037597;28;45297;-77
2022/05/12 09:42:28;;;;;;;;;1.75;1.75;;;;;19.48;43.72;101683.88;5051726;28;47057;-80
2022/05/12 09:44:56;;;;;;;;;2.25;1.75;;;;;19.59;43.97;101673.09;5046622;28;45444;-75
2022/05/12 09:47:22;;;;;;;;;2.25;2.25;;;;;19.60;43.65;101667.56;5053235;28;45353;-76
2022/05/12 09:49:48;;;;;;;;;2.00;2.00;;;;;19.73;44.53;101664.00;5052394;28;45692;-76
2022/05/12 09:52:36;;;;;;;;;3.75;2.00;;;;;19.81;43.38;101670.66;5052710;28;46055;-77
2022/05/12 09:55:08;;;;;;;;;3.50;2.50;;;;;19.74;43.97;101673.88;5049955;28;45323;-77
2022/05/12 09:57:35;;;;;;;;;4.75;2.00;;;;;19.76;43.67;101674.66;5054051;28;45474;-78
2022/05/12 10:00:03;;;;;;;;;3.25;2.00;;;;;19.70;44.07;101659.63;5052980;28;45303;-77
2022/05/12 10:08:26;;;;;;;;;3.00;1.50;;;;;20.07;43.29;101659.78;5053207;28;45406;-75
2022/05/12 10:11:04;;;;;;;;;2.00;2.00;;;;;19.97;42.96;101644.09;5031280;28;45315;-75
2022/05/12 10:13:41;;;;;;;;;2.50;2.50;;;;;19.94;43.66;101655.19;5036531;28;48130;-77
2022/05/12 10:16:13;;;;;;;;;1.75;1.00;;;;;19.96;43.98;101657.81;5032871;28;45387;-75
2022/05/12 10:18:44;;;;;;;;;1.00;1.00;;;;;19.93;43.48;101647.13;5040459;28;45492;-76
2022/05/12 10:21:21;;;;;;;;;2.00;2.00;;;;;19.91;44.20;101654.53;5017336;28;45331;-76
2022/05/12 10:24:09;;;;;;;;;2.75;2.25;;;;;20.00;43.66;101652.03;5043998;28;45404;-77
2022/05/12 10:26:50;;;;;;;;;1.00;0.50;;;;;20.00;43.58;101643.88;5013772;28;45428;-78
2022/05/12 10:29:31;;;;;;;;;3.00;3.00;;;;;20.06;43.92;101649.88;5045375;28;45377;-77
2022/05/12 10:32:09;;;;;;;;;1.75;1.75;;;;;20.13;43.72;101654.75;5031716;28;45369;-77
2022/05/12 10:34:41;;;;;;;;;2.25;1.50;;;;;20.21;43.03;101651.50;5038442;28;46122;-77
2022/05/12 10:37:31;;;;;;;;;3.75;1.75;;;;;20.20;42.99;101647.91;5031789;28;45486;-78
2022/05/12 10:40:09;;;;;;;;;2.00;2.00;;;;;20.23;42.01;101647.69;5037058;28;45328;-77
2022/05/12 10:43:01;;;;;;;;;1.75;1.75;;;;;20.34;41.99;101641.47;5035422;28;45423;-76
2022/05/12 10:45:40;;;;;;;;;2.00;2.00;;;;;20.54;42.39;101649.06;5053241;28;46240;-79
2022/05/12 10:48:41;;;;;;;;;1.75;1.75;;;;;20.48;41.52;101638.63;5055498;28;45477;-76
2022/05/12 10:51:14;;;;;;;;;1.75;1.75;;;;;20.37;41.50;101624.91;5046135;28;45320;-77
2022/05/12 10:53:45;;;;;;;;;1.00;1.00;;;;;20.49;42.25;101637.66;5055246;28;45339;-77
2022/05/12 10:56:24;;;;;;;;;2.50;2.50;;;;;20.67;42.24;101644.44;5055745;28;46147;-78
2022/05/12 10:59:00;;;;;;;;;1.50;1.50;;;;;20.75;41.95;101642.06;5036948;28;45379;-77
2022/05/12 11:01:35;;;;;;;;;4.00;2.00;;;;;20.70;41.81;101613.38;5055789;28;46011;-76
2022/05/12 11:04:12;;;;;;;;;1.75;1.75;;;;;20.67;41.19;101613.63;5033503;28;46735;-76
2022/05/12 11:06:49;;;;;;;;;2.00;2.00;;;;;20.52;41.64;101607.44;5034976;28;45331;-78
2022/05/12 11:09:24;;;;;;;;;1.75;1.75;;;;;20.60;41.80;101643.16;5044761;28;45454;-77
2022/05/12 11:11:53;;;;;;;;;2.00;2.00;;;;;20.63;42.54;101633.91;5024589;28;45463;-76
2022/05/12 11:14:51;;;;;;;;;5.50;2.00;;;;;20.87;42.47;101628.47;5048921;28;45359;-78
2022/05/12 11:17:35;;;;;;;;;1.75;0.00;;;;;20.79;40.02;101642.69;5047798;28;47126;-78
2022/05/12 11:20:09;;;;;;;;;2.50;2.50;;;;;20.76;40.28;101616.53;5054728;28;45521;-76
2022/05/12 11:22:46;;;;;;;;;3.00;2.00;;;;;21.01;40.15;101644.69;5054821;28;45321;-77
2022/05/12 11:25:19;;;;;;;;;1.00;1.00;;;;;20.92;40.84;101638.06;5054876;28;45552;-78
2022/05/12 11:29:41;;;;;;;;;1.75;1.75;;;;;20.97;40.56;101641.31;5054780;28;45490;-77
2022/05/12 11:30:58;;;;;;;;;2.00;1.75;;;;;21.02;40.91;101636.38;5051644;28;45689;-76
2022/05/12 11:33:33;;;;;;;;;2.00;2.00;;;;;21.01;41.26;101628.34;5036928;28;45657;-78
2022/05/12 11:35:59;;;;;;;;;1.00;1.00;;;;;21.08;41.00;101629.59;5055291;28;45434;-77
2022/05/12 11:38:56;;;;;;;;;2.75;2.75;;;;;21.09;40.57;101636.81;5054786;28;46250;-78
2022/05/12 11:41:27;;;;;;;;;1.50;1.50;;;;;21.12;41.04;101639.28;5032443;28;45353;-75
2022/05/12 11:44:29;;;;;;;;;1.00;1.00;;;;;21.00;41.31;101641.09;5055023;28;45390;-77
2022/05/12 11:47:04;;;;;;;;;1.75;1.75;;;;;21.02;42.02;101636.38;5034716;28;46036;-77
2022/05/12 11:49:32;;;;;;;;;2.00;2.00;;;;;20.96;41.11;101647.75;5054167;28;46650;-75
2022/05/12 11:52:20;;;;;;;;;2.25;0.75;;;;;21.09;41.30;101642.25;5053748;28;45427;-76
2022/05/12 11:55:01;;;;;;;;;3.25;1.75;;;;;21.26;41.34;101643.72;5032735;28;45780;-77
2022/05/12 11:57:36;;;;;;;;;3.25;1.00;;;;;21.28;40.53;101628.97;5043244;28;45349;-78
2022/05/12 12:00:10;;;;;;;;;1.50;1.50;;;;;21.42;40.87;101626.06;5054003;28;45652;-76
2022/05/12 12:02:44;;;;;;;;;2.00;2.00;;;;;21.60;40.88;101628.34;5054271;28;45424;-76
2022/05/12 12:05:40;;;;;;;;;4.00;2.00;;;;;21.68;40.59;101620.44;5054255;28;45509;-74
2022/05/12 12:08:09;;;;;;;;;1.25;1.25;;;;;21.77;39.52;101614.25;5025205;28;45515;-74
2022/05/12 12:10:39;;;;;;;;;1.75;1.75;;;;;21.81;40.14;101618.47;5053891;28;46086;-77
2022/05/12 12:13:35;;;;;;;;;6.00;3.00;;;;;21.89;39.87;101614.13;5049917;28;45414;-75
2022/05/12 12:16:07;;;;;;;;;2.00;2.00;;;;;21.88;39.21;101600.59;5039312;28;45356;-76
2022/05/12 12:18:32;;;;;;;;;4.25;3.00;;;;;22.08;39.37;101626.34;5043434;28;45473;-75
2022/05/12 12:21:19;;;;;;;;;1.75;1.75;;;;;21.98;39.45;101631.69;5053730;28;46062;-76
2022/05/12 12:23:59;;;;;;;;;1.00;1.00;;;;;21.87;39.61;101616.09;5053622;28;45447;-76
2022/05/12 12:26:32;;;;;;;;;2.75;1.50;;;;;21.96;39.75;101622.69;5041186;28;45361;-77
2022/05/12 12:29:09;;;;;;;;;1.75;1.75;;;;;22.13;39.07;101619.53;5054107;28;45450;-76
2022/05/12 12:31:43;;;;;;;;;2.00;2.00;;;;;22.04;38.93;101594.81;5054013;28;45382;-76
2022/05/12 12:34:26;;;;;;;;;2.75;2.50;;;;;22.24;37.97;101605.00;5035472;28;45608;-75
2022/05/12 12:37:05;;;;;;;;;2.75;1.75;;;;;22.23;38.42;101593.22;5054084;28;45406;-75
2022/05/12 12:39:38;;;;;;;;;1.00;1.00;;;;;22.53;38.93;101606.25;5053638;28;45293;-76
2022/05/12 12:42:33;;;;;;;;;2.75;1.00;;;;;22.69;38.89;101597.63;5053804;28;45378;-76
2022/05/12 12:45:20;;;;;;;;;0.00;0.00;;;;;22.93;37.34;101586.53;5053624;28;45437;-75
2022/05/12 12:47:51;;;;;;;;;1.00;1.00;;;;;23.24;37.80;101585.66;5042796;28;45352;-77
2022/05/12 12:50:16;;;;;;;;;2.25;1.00;;;;;23.62;36.38;101587.84;5053282;28;45335;-77
2022/05/12 12:52:44;;;;;;;;;1.50;1.50;;;;;23.72;36.30;101576.97;5029487;28;46217;-77
2022/05/12 12:58:03;;;;;;;;;3.00;2.00;;;;;23.86;36.08;101586.69;5046935;28;45407;-77
2022/05/12 13:00:35;;;;;;;;;2.00;2.00;;;;;23.84;34.36;101589.56;5053078;28;45528;-76
2022/05/12 13:03:06;;;;;;;;;0.50;0.50;;;;;23.71;34.95;101592.53;5053064;28;46085;-76
2022/05/12 13:05:34;;;;;;;;;0.00;0.00;;;;;23.68;35.73;101600.13;5042827;28;45391;-75
2022/05/12 13:08:06;;;;;;;;;1.00;1.00;;;;;23.38;35.48;101589.97;5033204;28;45428;-76
2022/05/12 13:10:45;;;;;;;;;0.00;0.00;;;;;23.68;35.35;101592.78;5035228;28;45458;-75
2022/05/12 13:13:10;;;;;;;;;6.00;2.00;;;;;23.89;35.40;101579.09;5040897;28;45324;-76
2022/05/12 13:15:39;;;;;;;;;1.00;1.00;;;;;24.11;34.90;101581.63;5053040;28;45474;-77
2022/05/12 13:18:08;;;;;;;;;1.00;1.00;;;;;24.33;34.32;101569.63;5053723;28;45458;-77
2022/05/12 13:20:40;;;;;;;;;0.75;0.75;;;;;24.68;34.45;101577.38;5053617;28;45446;-76
2022/05/12 13:23:25;;;;;;;;;1.00;1.00;;;;;24.78;33.15;101567.28;5040362;28;46575;-76
2022/05/12 13:25:52;;;;;;;;;2.25;1.00;;;;;24.40;33.50;101548.91;5052836;28;45418;-77
2022/05/12 13:28:26;;;;;;;;;1.75;1.00;;;;;24.47;33.70;101568.38;5053657;28;45386;-75
2022/05/12 13:31:12;;;;;;;;;1.00;1.00;;;;;24.27;34.41;101570.19;5048676;28;45947;-77
2022/05/12 13:33:53;;;;;;;;;1.00;1.00;;;;;24.43;33.23;101567.78;5032695;28;45656;-77
2022/05/12 13:36:23;;;;;;;;;0.25;0.25;;;;;24.37;34.37;101568.34;5050144;28;45362;-77
2022/05/12 13:38:48;;;;;;;;;2.50;1.25;;;;;24.23;34.84;101571.50;5050292;28;45444;-77
2022/05/12 13:41:38;;;;;;;;;1.75;1.75;;;;;23.91;34.63;101570.69;5048906;28;45575;-74
2022/05/12 13:44:12;;;;;;;;;1.50;1.50;;;;;23.86;35.24;101568.38;5052652;28;46006;-76
2022/05/12 13:46:39;;;;;;;;;3.00;2.00;;;;;24.27;34.77;101570.19;5052478;28;45422;-77
2022/05/12 13:49:11;;;;;;;;;2.25;2.00;;;;;24.93;34.19;101576.00;5035484;28;45465;-76
2022/05/12 13:51:54;;;;;;;;;1.75;1.75;;;;;25.15;33.58;101559.28;5052144;28;45394;-76
2022/05/12 13:54:33;;;;;;;;;2.50;1.75;;;;;24.96;33.65;101572.09;5052806;28;46022;-77
2022/05/12 13:57:16;;;;;;;;;1.75;1.75;;;;;24.59;34.06;101561.75;5052224;28;45415;-77
2022/05/12 14:00:10;;;;;;;;;1.00;1.00;;;;;24.29;34.60;101545.38;5052388;28;45659;-75
2022/05/12 14:02:51;;;;;;;;;0.50;0.50;;;;;24.06;35.09;101551.06;5052445;28;45406;-76
2022/05/12 14:05:21;;;;;;;;;1.75;0.50;;;;;24.28;35.00;101550.00;5039072;28;45684;-76
2022/05/12 14:08:08;;;;;;;;;0.50;0.50;;;;;24.91;33.97;101542.38;5031941;28;45387;-78
2022/05/12 14:10:37;;;;;;;;;1.00;1.00;;;;;25.42;33.49;101538.44;5052888;28;45419;-74
2022/05/12 14:21:25;;;;;;;;;0.50;0.50;;;;;26.46;30.90;101556.63;5044575;28;45398;-75
2022/05/12 14:23:50;;;;;;;;;1.25;1.25;;;;;26.77;29.67;101540.66;5035956;28;45520;-76
2022/05/12 14:26:16;;;;;;;;;1.25;1.25;;;;;26.77;30.33;101555.28;5042976;28;46119;-76
2022/05/12 14:28:41;;;;;;;;;1.00;1.00;;;;;26.25;30.79;101541.22;5037570;28;45300;-77
2022/05/12 14:31:07;;;;;;;;;2.50;1.50;;;;;26.36;31.56;101551.19;5037550;28;45505;-76
2022/05/12 14:33:33;;;;;;;;;2.00;0.75;;;;;26.24;30.68;101533.13;5056428;28;45369;-79
2022/05/12 14:36:00;;;;;;;;;1.00;1.00;;;;;26.18;30.67;101531.88;5047808;28;46235;-75
2022/05/12 14:38:26;;;;;;;;;0.75;0.75;;;;;25.98;31.31;101522.84;5034809;28;45509;-74
2022/05/12 14:40:52;;;;;;;;;1.75;1.75;;;;;26.01;31.85;101516.19;5037106;28;45783;-76
2022/05/12 14:43:18;;;;;;;;;2.00;1.00;;;;;26.11;30.51;101506.00;5035041;28;45588;-75
2022/05/12 14:45:43;;;;;;;;;1.50;1.50;;;;;26.22;30.62;101511.28;5035743;28;46069;-74
2022/05/12 14:48:09;;;;;;;;;2.00;2.00;;;;;25.90;31.11;101492.50;5035814;28;45390;-76
2022/05/12 14:50:36;;;;;;;;;3.00;1.00;;;;;25.86;30.87;101498.47;5053591;28;45732;-74
2022/05/12 14:53:08;;;;;;;;;1.25;1.00;;;;;26.00;31.22;101500.69;5054777;28;45276;-75
2022/05/12 14:55:41;;;;;;;;;2.00;1.00;;;;;26.09;31.46;101494.28;5035351;28;45383;-74
2022/05/12 14:58:07;;;;;;;;;2.00;1.00;;;;;26.10;31.13;101496.03;5039859;28;45613;-73
2022/05/12 15:00:33;;;;;;;;;1.25;0.75;;;;;26.30;31.50;101502.28;5035160;28;45458;-74
2022/05/12 15:03:00;;;;;;;;;2.50;1.00;;;;;26.25;31.38;101513.72;5051082;28;45646;-76
2022/05/12 15:05:28;;;;;;;;;2.25;2.25;;;;;25.98;31.48;101509.09;5055464;28;45366;-72
2022/05/12 15:07:54;;;;;;;;;1.00;1.00;;;;;25.65;32.00;101514.28;5052810;28;45371;-75
2022/05/12 15:10:20;;;;;;;;;1.50;1.50;;;;;25.53;31.17;101516.28;5035411;28;45372;-75
2022/05/12 15:12:45;;;;;;;;;1.25;0.75;;;;;25.23;31.60;101521.00;5048532;28;45435;-77
2022/05/12 15:15:12;;;;;;;;;1.75;1.75;;;;;24.96;32.13;101520.84;5055518;28;46375;-75
2022/05/12 15:17:42;;;;;;;;;1.50;0.75;;;;;24.74;32.26;101532.06;5036292;28;45469;-75
2022/05/12 15:20:09;;;;;;;;;3.50;0.75;;;;;24.34;32.65;101515.69;5055350;28;45330;-76
2022/05/12 15:22:36;;;;;;;;;1.00;1.00;;;;;24.37;32.84;101515.41;5054388;28;46277;-74
2022/05/12 15:25:02;;;;;;;;;1.75;0.75;;;;;24.35;32.96;101522.91;5055188;28;46254;-74
2022/05/12 15:27:31;;;;;;;;;1.00;1.00;;;;;24.36;33.51;101520.03;5035229;28;45411;-74
2022/05/12 15:30:00;;;;;;;;;1.00;1.00;;;;;24.40;33.23;101518.75;5055097;28;45462;-76
2022/05/12 15:32:26;;;;;;;;;0.75;0.75;;;;;24.27;33.68;101495.31;5054074;28;45352;-73
2022/05/12 15:34:52;;;;;;;;;0.75;0.75;;;;;24.23;33.34;101510.34;5054788;28;46025;-77
2022/05/12 15:37:18;;;;;;;;;1.00;1.00;;;;;24.03;33.62;101510.22;5049961;28;45371;-76
2022/05/12 15:39:44;;;;;;;;;0.00;0.00;;;;;24.01;34.24;101514.97;5034568;28;45388;-75
2022/05/12 15:42:11;;;;;;;;;1.25;1.25;;;;;23.95;34.11;101515.53;5036047;28;45517;-76
2022/05/12 15:44:36;;;;;;;;;1.25;1.25;;;;;23.97;34.78;101521.75;5034483;28;46001;-77
2022/05/12 15:47:21;;;;;;;;;1.75;0.75;;;;;23.79;34.19;101515.19;5034583;28;45402;-73
2022/05/12 15:49:46;;;;;;;;;2.00;2.00;;;;;23.65;34.55;101516.38;5034361;28;45330;-75
2022/05/12 15:52:12;;;;;;;;;1.00;1.00;;;;;23.58;34.40;101512.47;5040797;28;45315;-74
2022/05/12 15:54:39;;;;;;;;;1.50;1.50;;;;;23.63;34.44;101512.06;5049039;28;45584;-76
2022/05/12 15:57:05;;;;;;;;;2.00;2.00;;;;;23.57;34.74;101509.84;5053870;28;45295;-75
2022/05/12 15:59:31;;;;;;;;;2.00;2.00;;;;;23.46;34.62;101510.78;5054337;28;45335;-74
2022/05/12 16:01:58;;;;;;;;;1.00;1.00;;;;;23.28;35.15;101517.88;5054419;28;45368;-73
2022/05/12 16:04:24;;;;;;;;;3.00;1.00;;;;;22.95;34.31;101477.88;5054235;28;45893;-75
2022/05/12 16:06:49;;;;;;;;;1.50;0.00;;;;;22.86;34.80;101508.75;5053932;28;45630;-76
2022/05/12 16:09:15;;;;;;;;;0.75;0.75;;;;;22.78;35.16;101512.16;5041711;28;45331;-76
2022/05/12 16:14:24;;;;;;;;;1.75;1.25;;;;;22.81;34.97;101511.88;5053714;28;46160;-76
2022/05/12 16:16:54;;;;;;;;;1.25;0.25;;;;;22.70;34.54;101500.09;5053189;28;45491;-74
2022/05/12 16:19:20;;;;;;;;;0.75;0.75;;;;;22.65;34.76;101490.41;5054087;28;45308;-76
2022/05/12 16:21:46;;;;;;;;;1.00;1.00;;;;;22.70;34.96;101511.91;5053602;28;45440;-75
2022/05/12 16:24:11;;;;;;;;;0.00;0.00;;;;;22.71;34.85;101505.44;5053841;28;45593;-77
2022/05/12 16:26:43;;;;;;;;;1.00;1.00;;;;;22.80;34.49;101521.06;5053679;28;45467;-76
2022/05/12 16:29:16;;;;;;;;;0.25;0.25;;;;;22.71;34.43;101499.97;5050570;28;45541;-76
2022/05/12 16:31:42;;;;;;;;;1.00;1.00;;;;;22.59;35.21;101511.94;5035108;28;46160;-77
2022/05/12 16:34:08;;;;;;;;;0.50;0.50;;;;;22.53;35.38;101510.59;5052811;28;45345;-77
2022/05/12 16:36:34;;;;;;;;;0.00;0.00;;;;;22.57;35.73;101494.78;5053521;28;45342;-76
2022/05/12 16:39:00;;;;;;;;;0.50;0.50;;;;;22.60;35.30;101503.59;5053484;28;45269;-78
2022/05/12 16:41:27;;;;;;;;;2.75;0.75;;;;;22.62;35.38;101514.41;5053638;28;45375;-76